createdAt,value
2018-08-19T13:52:50.127Z,67
2018-08-19T13:54:50.421Z,98
2018-08-19T13:56:49.931Z,79
2018-08-19T13:58:50.164Z,79
2018-08-19T14:00:50.401Z,58
2018-08-19T14:02:49.763Z,58
2018-08-19T14:04:50.667Z,85
2018-08-19T14:06:50.351Z,124
2018-08-19T14:08:50.535Z,78
2018-08-19T14:10:49.804Z,78
2018-08-19T14:12:50.153Z,90
2018-08-19T14:14:50.422Z,75
2018-08-19T14:16:49.818Z,78
2018-08-19T14:18:50.037Z,78
2018-08-19T14:20:50.401Z,92
2018-08-19T14:22:49.886Z,79
2018-08-19T14:24:50.003Z,79
2018-08-19T14:26:50.469Z,57
2018-08-19T14:28:49.753Z,71
2018-08-19T14:30:50.392Z,78
2018-08-19T14:32:50.028Z,75
2018-08-19T14:34:50.625Z,26
2018-08-19T14:36:50.171Z,66
2018-08-19T14:38:50.466Z,60
2018-08-19T14:40:50.692Z,52
2018-08-19T14:42:49.856Z,56
2018-08-19T14:44:50.125Z,54
2018-08-19T14:46:50.574Z,40
2018-08-19T14:48:49.894Z,48
2018-08-19T14:50:50.049Z,39
2018-08-19T14:52:50.248Z,28
2018-08-19T14:54:50.529Z,25
2018-08-19T14:56:49.976Z,35
2018-08-19T14:58:50.173Z,21
2018-08-19T15:00:50.423Z,21
2018-08-19T15:02:50.777Z,18
2018-08-19T15:04:50.403Z,37
2018-08-19T15:06:49.877Z,44
2018-08-19T15:08:50.147Z,27
2018-08-19T15:10:50.340Z,15
2018-08-19T15:12:50.597Z,18
2018-08-19T15:14:49.913Z,38
2018-08-19T15:16:50.497Z,18
2018-08-19T15:18:49.727Z,35
2018-08-19T15:20:50.082Z,16
2018-08-19T15:22:50.477Z,37
2018-08-19T15:24:49.869Z,62
2018-08-19T15:26:50.317Z,37
2018-08-19T15:28:50.505Z,17
2018-08-19T15:30:49.828Z,19
2018-08-19T15:32:52.508Z,46
2018-08-19T15:34:49.794Z,54
2018-08-19T15:36:50.242Z,54
2018-08-19T15:38:50.330Z,54
2018-08-19T15:40:50.879Z,36
2018-08-19T15:42:50.181Z,32
2018-08-19T15:44:50.524Z,7
2018-08-19T15:46:49.906Z,7
2018-08-19T15:48:50.081Z,14
2018-08-19T15:50:50.319Z,26
2018-08-19T15:52:50.922Z,12
2018-08-19T15:54:50.309Z,9
2018-08-19T15:56:49.825Z,4
2018-08-19T15:58:50.670Z,0
2018-08-19T16:00:49.897Z,0
2018-08-19T16:02:50.079Z,2
2018-08-19T16:04:49.776Z,2
2018-08-19T16:06:50.324Z,4
2018-08-19T16:08:50.646Z,0
2018-08-19T16:10:49.895Z,1
2018-08-19T16:12:50.168Z,0
2018-08-19T16:14:50.428Z,0
2018-08-19T16:16:49.997Z,0
2018-08-19T16:18:50.289Z,2
2018-08-19T16:20:50.565Z,2
2018-08-19T16:22:49.799Z,2
